sensor_id;sensor_type;location;lat;lon;timestamp;temperature;humidity
70051;SHT30;57391;51.306;22.680;2023-12-20T00:01:35;6.59;69.44
70051;SHT30;57391;51.306;22.680;2023-12-20T00:03:37;6.56;69.68
70051;SHT30;57391;51.306;22.680;2023-12-20T00:05:39;6.54;69.56
70051;SHT30;57391;51.306;22.680;2023-12-20T00:07:42;6.53;69.91
70051;SHT30;57391;51.306;22.680;2023-12-20T00:09:44;6.49;70.01
70051;SHT30;57391;51.306;22.680;2023-12-20T00:11:46;6.46;70.28
70051;SHT30;57391;51.306;22.680;2023-12-20T00:13:47;6.45;70.47
70051;SHT30;57391;51.306;22.680;2023-12-20T00:15:49;6.42;70.55
70051;SHT30;57391;51.306;22.680;2023-12-20T00:17:51;6.40;70.74
70051;SHT30;57391;51.306;22.680;2023-12-20T00:19:53;6.38;70.85
70051;SHT30;57391;51.306;22.680;2023-12-20T00:21:54;6.35;70.99
70051;SHT30;57391;51.306;22.680;2023-12-20T00:23:56;6.33;71.19
70051;SHT30;57391;51.306;22.680;2023-12-20T00:25:58;6.31;71.39
70051;SHT30;57391;51.306;22.680;2023-12-20T00:28:00;6.29;71.64
70051;SHT30;57391;51.306;22.680;2023-12-20T00:30:02;6.27;71.78
70051;SHT30;57391;51.306;22.680;2023-12-20T00:32:04;6.24;71.82
70051;SHT30;57391;51.306;22.680;2023-12-20T00:34:06;6.23;72.01
70051;SHT30;57391;51.306;22.680;2023-12-20T00:36:07;6.21;72.19
70051;SHT30;57391;51.306;22.680;2023-12-20T00:38:09;6.19;72.38
70051;SHT30;57391;51.306;22.680;2023-12-20T00:40:12;6.18;72.63
70051;SHT30;57391;51.306;22.680;2023-12-20T00:42:14;6.16;72.75
70051;SHT30;57391;51.306;22.680;2023-12-20T00:44:16;6.15;72.86
70051;SHT30;57391;51.306;22.680;2023-12-20T00:46:18;6.14;72.91
70051;SHT30;57391;51.306;22.680;2023-12-20T00:48:20;6.13;73.09
70051;SHT30;57391;51.306;22.680;2023-12-20T00:50:22;6.12;73.29
70051;SHT30;57391;51.306;22.680;2023-12-20T00:52:24;6.11;73.41
70051;SHT30;57391;51.306;22.680;2023-12-20T00:54:26;6.08;73.66
70051;SHT30;57391;51.306;22.680;2023-12-20T00:56:28;6.07;73.84
70051;SHT30;57391;51.306;22.680;2023-12-20T00:58:30;6.05;74.07
70051;SHT30;57391;51.306;22.680;2023-12-20T01:00:32;6.05;74.07
70051;SHT30;57391;51.306;22.680;2023-12-20T01:02:34;6.02;74.30
70051;SHT30;57391;51.306;22.680;2023-12-20T01:04:36;6.01;74.59
70051;SHT30;57391;51.306;22.680;2023-12-20T01:06:37;6.01;74.81
70051;SHT30;57391;51.306;22.680;2023-12-20T01:08:39;5.99;74.85
70051;SHT30;57391;51.306;22.680;2023-12-20T01:10:41;5.97;74.99
70051;SHT30;57391;51.306;22.680;2023-12-20T01:12:43;5.96;75.29
70051;SHT30;57391;51.306;22.680;2023-12-20T01:14:45;5.96;75.49
70051;SHT30;57391;51.306;22.680;2023-12-20T01:16:47;5.95;75.71
70051;SHT30;57391;51.306;22.680;2023-12-20T01:18:49;5.94;75.85
70051;SHT30;57391;51.306;22.680;2023-12-20T01:20:50;5.92;75.85
70051;SHT30;57391;51.306;22.680;2023-12-20T01:22:52;5.91;76.10
70051;SHT30;57391;51.306;22.680;2023-12-20T01:24:54;5.87;76.39
70051;SHT30;57391;51.306;22.680;2023-12-20T01:26:57;5.87;76.63
70051;SHT30;57391;51.306;22.680;2023-12-20T01:28:59;5.85;76.88
70051;SHT30;57391;51.306;22.680;2023-12-20T01:31:01;5.84;77.07
70051;SHT30;57391;51.306;22.680;2023-12-20T01:33:02;5.83;77.22
70051;SHT30;57391;51.306;22.680;2023-12-20T01:35:04;5.81;77.41
70051;SHT30;57391;51.306;22.680;2023-12-20T01:37:06;5.80;77.59
70051;SHT30;57391;51.306;22.680;2023-12-20T01:39:08;5.79;77.71
70051;SHT30;57391;51.306;22.680;2023-12-20T01:41:10;5.78;77.86
70051;SHT30;57391;51.306;22.680;2023-12-20T01:43:11;5.78;78.05
70051;SHT30;57391;51.306;22.680;2023-12-20T01:45:14;5.78;78.20
70051;SHT30;57391;51.306;22.680;2023-12-20T01:47:16;5.75;78.34
70051;SHT30;57391;51.306;22.680;2023-12-20T01:49:18;5.74;78.55
70051;SHT30;57391;51.306;22.680;2023-12-20T01:51:20;5.73;78.66
70051;SHT30;57391;51.306;22.680;2023-12-20T01:53:23;5.72;78.75
70051;SHT30;57391;51.306;22.680;2023-12-20T01:55:27;5.71;78.88
70051;SHT30;57391;51.306;22.680;2023-12-20T01:57:32;5.70;78.96
70051;SHT30;57391;51.306;22.680;2023-12-20T01:59:34;5.69;79.07
70051;SHT30;57391;51.306;22.680;2023-12-20T02:01:37;5.70;79.11
70051;SHT30;57391;51.306;22.680;2023-12-20T02:03:42;5.68;79.26
70051;SHT30;57391;51.306;22.680;2023-12-20T02:05:44;5.67;79.31
70051;SHT30;57391;51.306;22.680;2023-12-20T02:07:48;5.65;79.49
70051;SHT30;57391;51.306;22.680;2023-12-20T02:09:50;5.64;79.59
70051;SHT30;57391;51.306;22.680;2023-12-20T02:11:51;5.63;79.71
70051;SHT30;57391;51.306;22.680;2023-12-20T02:13:53;5.61;79.76
70051;SHT30;57391;51.306;22.680;2023-12-20T02:15:55;5.59;79.90
70051;SHT30;57391;51.306;22.680;2023-12-20T02:17:58;5.58;79.97
70051;SHT30;57391;51.306;22.680;2023-12-20T02:20:00;5.57;80.10
70051;SHT30;57391;51.306;22.680;2023-12-20T02:22:06;5.53;80.18
70051;SHT30;57391;51.306;22.680;2023-12-20T02:24:12;5.53;80.20
70051;SHT30;57391;51.306;22.680;2023-12-20T02:26:14;5.51;80.24
70051;SHT30;57391;51.306;22.680;2023-12-20T02:28:16;5.50;80.32
70051;SHT30;57391;51.306;22.680;2023-12-20T02:30:18;5.47;80.50
70051;SHT30;57391;51.306;22.680;2023-12-20T02:32:20;5.46;80.45
70051;SHT30;57391;51.306;22.680;2023-12-20T02:34:23;5.45;80.51
70051;SHT30;57391;51.306;22.680;2023-12-20T02:36:25;5.45;80.59
70051;SHT30;57391;51.306;22.680;2023-12-20T02:38:27;5.43;80.60
70051;SHT30;57391;51.306;22.680;2023-12-20T02:40:29;5.43;80.61
70051;SHT30;57391;51.306;22.680;2023-12-20T02:42:30;5.43;80.72
70051;SHT30;57391;51.306;22.680;2023-12-20T02:44:32;5.43;80.80
70051;SHT30;57391;51.306;22.680;2023-12-20T02:46:34;5.42;80.86
70051;SHT30;57391;51.306;22.680;2023-12-20T02:48:36;5.40;80.90
70051;SHT30;57391;51.306;22.680;2023-12-20T02:50:37;5.41;80.95
70051;SHT30;57391;51.306;22.680;2023-12-20T02:52:39;5.41;80.99
70051;SHT30;57391;51.306;22.680;2023-12-20T02:54:41;5.39;81.06
70051;SHT30;57391;51.306;22.680;2023-12-20T02:56:43;5.38;81.14
70051;SHT30;57391;51.306;22.680;2023-12-20T02:58:44;5.37;81.20
70051;SHT30;57391;51.306;22.680;2023-12-20T03:00:46;5.37;81.28
70051;SHT30;57391;51.306;22.680;2023-12-20T03:02:48;5.36;81.31
70051;SHT30;57391;51.306;22.680;2023-12-20T03:04:50;5.36;81.44
70051;SHT30;57391;51.306;22.680;2023-12-20T03:06:51;5.36;81.54
70051;SHT30;57391;51.306;22.680;2023-12-20T03:08:53;5.35;81.56
70051;SHT30;57391;51.306;22.680;2023-12-20T03:10:55;5.35;81.66
70051;SHT30;57391;51.306;22.680;2023-12-20T03:12:57;5.34;81.76
70051;SHT30;57391;51.306;22.680;2023-12-20T03:14:58;5.35;81.80
70051;SHT30;57391;51.306;22.680;2023-12-20T03:17:00;5.34;81.88
70051;SHT30;57391;51.306;22.680;2023-12-20T03:19:02;5.35;81.90
70051;SHT30;57391;51.306;22.680;2023-12-20T03:21:04;5.35;82.00
70051;SHT30;57391;51.306;22.680;2023-12-20T03:23:07;5.35;82.04
70051;SHT30;57391;51.306;22.680;2023-12-20T03:25:09;5.35;82.03
70051;SHT30;57391;51.306;22.680;2023-12-20T03:27:11;5.35;82.16
70051;SHT30;57391;51.306;22.680;2023-12-20T03:29:12;5.35;82.21
70051;SHT30;57391;51.306;22.680;2023-12-20T03:31:14;5.35;82.20
70051;SHT30;57391;51.306;22.680;2023-12-20T03:33:16;5.36;82.31
70051;SHT30;57391;51.306;22.680;2023-12-20T03:35:18;5.38;82.40
70051;SHT30;57391;51.306;22.680;2023-12-20T03:37:20;5.37;82.43
70051;SHT30;57391;51.306;22.680;2023-12-20T03:39:23;5.38;82.45
70051;SHT30;57391;51.306;22.680;2023-12-20T03:41:25;5.38;82.40
70051;SHT30;57391;51.306;22.680;2023-12-20T03:43:26;5.37;82.44
70051;SHT30;57391;51.306;22.680;2023-12-20T03:45:28;5.37;82.45
70051;SHT30;57391;51.306;22.680;2023-12-20T03:47:30;5.37;82.47
70051;SHT30;57391;51.306;22.680;2023-12-20T03:49:32;5.37;82.60
70051;SHT30;57391;51.306;22.680;2023-12-20T03:51:34;5.37;82.63
70051;SHT30;57391;51.306;22.680;2023-12-20T03:53:35;5.36;82.71
70051;SHT30;57391;51.306;22.680;2023-12-20T03:55:37;5.38;82.66
70051;SHT30;57391;51.306;22.680;2023-12-20T03:57:39;5.37;82.72
70051;SHT30;57391;51.306;22.680;2023-12-20T03:59:41;5.38;82.71
70051;SHT30;57391;51.306;22.680;2023-12-20T04:01:43;5.38;82.71
70051;SHT30;57391;51.306;22.680;2023-12-20T04:03:48;5.38;82.76
70051;SHT30;57391;51.306;22.680;2023-12-20T04:05:50;5.38;82.84
70051;SHT30;57391;51.306;22.680;2023-12-20T04:07:52;5.38;82.91
70051;SHT30;57391;51.306;22.680;2023-12-20T04:09:53;5.39;83.01
70051;SHT30;57391;51.306;22.680;2023-12-20T04:11:55;5.40;83.10
70051;SHT30;57391;51.306;22.680;2023-12-20T04:13:57;5.39;83.11
70051;SHT30;57391;51.306;22.680;2023-12-20T04:15:59;5.41;83.20
70051;SHT30;57391;51.306;22.680;2023-12-20T04:18:00;5.42;83.30
70051;SHT30;57391;51.306;22.680;2023-12-20T04:20:02;5.42;83.39
70051;SHT30;57391;51.306;22.680;2023-12-20T04:22:05;5.42;83.46
70051;SHT30;57391;51.306;22.680;2023-12-20T04:24:07;5.43;83.61
70051;SHT30;57391;51.306;22.680;2023-12-20T04:26:09;5.42;83.65
70051;SHT30;57391;51.306;22.680;2023-12-20T04:28:11;5.43;83.70
70051;SHT30;57391;51.306;22.680;2023-12-20T04:30:13;5.44;83.72
70051;SHT30;57391;51.306;22.680;2023-12-20T04:32:15;5.45;83.76
70051;SHT30;57391;51.306;22.680;2023-12-20T04:34:17;5.44;83.81
70051;SHT30;57391;51.306;22.680;2023-12-20T04:36:19;5.44;83.80
70051;SHT30;57391;51.306;22.680;2023-12-20T04:38:21;5.42;83.82
70051;SHT30;57391;51.306;22.680;2023-12-20T04:40:23;5.41;83.90
70051;SHT30;57391;51.306;22.680;2023-12-20T04:42:24;5.41;83.89
70051;SHT30;57391;51.306;22.680;2023-12-20T04:44:26;5.41;83.90
70051;SHT30;57391;51.306;22.680;2023-12-20T04:46:28;5.39;83.90
70051;SHT30;57391;51.306;22.680;2023-12-20T04:48:30;5.38;83.81
70051;SHT30;57391;51.306;22.680;2023-12-20T04:50:32;5.36;83.79
70051;SHT30;57391;51.306;22.680;2023-12-20T04:52:34;5.34;83.69
70051;SHT30;57391;51.306;22.680;2023-12-20T04:54:36;5.29;83.55
70051;SHT30;57391;51.306;22.680;2023-12-20T04:56:38;5.27;83.46
70051;SHT30;57391;51.306;22.680;2023-12-20T04:58:40;5.24;83.40
70051;SHT30;57391;51.306;22.680;2023-12-20T05:00:43;5.22;83.40
70051;SHT30;57391;51.306;22.680;2023-12-20T05:02:44;5.20;83.36
70051;SHT30;57391;51.306;22.680;2023-12-20T05:04:46;5.17;83.31
70051;SHT30;57391;51.306;22.680;2023-12-20T05:06:48;5.16;83.31
70051;SHT30;57391;51.306;22.680;2023-12-20T05:08:51;5.15;83.32
70051;SHT30;57391;51.306;22.680;2023-12-20T05:10:54;5.13;83.31
70051;SHT30;57391;51.306;22.680;2023-12-20T05:12:56;5.12;83.32
70051;SHT30;57391;51.306;22.680;2023-12-20T05:14:57;5.09;83.32
70051;SHT30;57391;51.306;22.680;2023-12-20T05:16:59;5.05;83.39
70051;SHT30;57391;51.306;22.680;2023-12-20T05:19:01;5.05;83.44
70051;SHT30;57391;51.306;22.680;2023-12-20T05:21:07;5.02;83.49
70051;SHT30;57391;51.306;22.680;2023-12-20T05:23:09;5.00;83.51
70051;SHT30;57391;51.306;22.680;2023-12-20T05:25:12;5.00;83.51
70051;SHT30;57391;51.306;22.680;2023-12-20T05:27:14;5.00;83.59
70051;SHT30;57391;51.306;22.680;2023-12-20T05:29:16;5.00;83.60
70051;SHT30;57391;51.306;22.680;2023-12-20T05:31:18;4.98;83.59
70051;SHT30;57391;51.306;22.680;2023-12-20T05:33:20;4.97;83.64
70051;SHT30;57391;51.306;22.680;2023-12-20T05:35:21;4.97;83.70
70051;SHT30;57391;51.306;22.680;2023-12-20T05:37:24;4.98;83.79
70051;SHT30;57391;51.306;22.680;2023-12-20T05:39:26;4.98;83.82
70051;SHT30;57391;51.306;22.680;2023-12-20T05:41:28;4.99;83.89
70051;SHT30;57391;51.306;22.680;2023-12-20T05:43:30;4.99;83.97
70051;SHT30;57391;51.306;22.680;2023-12-20T05:45:32;4.99;84.01
70051;SHT30;57391;51.306;22.680;2023-12-20T05:47:34;5.01;84.07
70051;SHT30;57391;51.306;22.680;2023-12-20T05:49:36;5.01;84.10
70051;SHT30;57391;51.306;22.680;2023-12-20T05:51:37;5.02;84.20
70051;SHT30;57391;51.306;22.680;2023-12-20T05:53:39;5.03;84.26
70051;SHT30;57391;51.306;22.680;2023-12-20T05:55:41;5.05;84.30
70051;SHT30;57391;51.306;22.680;2023-12-20T05:57:43;5.07;84.35
70051;SHT30;57391;51.306;22.680;2023-12-20T05:59:45;5.08;84.39
70051;SHT30;57391;51.306;22.680;2023-12-20T06:01:47;5.10;84.40
70051;SHT30;57391;51.306;22.680;2023-12-20T06:03:49;5.13;84.41
70051;SHT30;57391;51.306;22.680;2023-12-20T06:05:51;5.15;84.45
70051;SHT30;57391;51.306;22.680;2023-12-20T06:07:53;5.17;84.45
70051;SHT30;57391;51.306;22.680;2023-12-20T06:09:55;5.19;84.50
70051;SHT30;57391;51.306;22.680;2023-12-20T06:11:57;5.22;84.50
70051;SHT30;57391;51.306;22.680;2023-12-20T06:13:59;5.24;84.50
70051;SHT30;57391;51.306;22.680;2023-12-20T06:16:01;5.25;84.46
70051;SHT30;57391;51.306;22.680;2023-12-20T06:18:08;5.28;84.50
70051;SHT30;57391;51.306;22.680;2023-12-20T06:20:10;5.29;84.51
70051;SHT30;57391;51.306;22.680;2023-12-20T06:22:16;5.30;84.51
70051;SHT30;57391;51.306;22.680;2023-12-20T06:24:18;5.32;84.51
70051;SHT30;57391;51.306;22.680;2023-12-20T06:26:19;5.32;84.50
70051;SHT30;57391;51.306;22.680;2023-12-20T06:28:22;5.35;84.50
70051;SHT30;57391;51.306;22.680;2023-12-20T06:30:25;5.36;84.49
70051;SHT30;57391;51.306;22.680;2023-12-20T06:32:28;5.37;84.49
70051;SHT30;57391;51.306;22.680;2023-12-20T06:34:30;5.41;84.51
70051;SHT30;57391;51.306;22.680;2023-12-20T06:36:32;5.42;84.50
70051;SHT30;57391;51.306;22.680;2023-12-20T06:38:34;5.43;84.50
70051;SHT30;57391;51.306;22.680;2023-12-20T06:40:36;5.44;84.49
70051;SHT30;57391;51.306;22.680;2023-12-20T06:42:38;5.46;84.47
70051;SHT30;57391;51.306;22.680;2023-12-20T06:44:40;5.47;84.47
70051;SHT30;57391;51.306;22.680;2023-12-20T06:46:42;5.48;84.45
70051;SHT30;57391;51.306;22.680;2023-12-20T06:48:45;5.50;84.40
70051;SHT30;57391;51.306;22.680;2023-12-20T06:50:47;5.51;84.40
70051;SHT30;57391;51.306;22.680;2023-12-20T06:52:49;5.53;84.39
70051;SHT30;57391;51.306;22.680;2023-12-20T06:54:51;5.53;84.35
70051;SHT30;57391;51.306;22.680;2023-12-20T06:56:52;5.53;84.30
70051;SHT30;57391;51.306;22.680;2023-12-20T06:58:54;5.53;84.30
70051;SHT30;57391;51.306;22.680;2023-12-20T07:00:56;5.53;84.29
70051;SHT30;57391;51.306;22.680;2023-12-20T07:02:58;5.53;84.24
70051;SHT30;57391;51.306;22.680;2023-12-20T07:05:01;5.53;84.29
70051;SHT30;57391;51.306;22.680;2023-12-20T07:07:03;5.54;84.30
70051;SHT30;57391;51.306;22.680;2023-12-20T07:09:05;5.56;84.28
70051;SHT30;57391;51.306;22.680;2023-12-20T07:11:10;5.56;84.21
70051;SHT30;57391;51.306;22.680;2023-12-20T07:13:12;5.56;84.21
70051;SHT30;57391;51.306;22.680;2023-12-20T07:15:15;5.59;84.22
70051;SHT30;57391;51.306;22.680;2023-12-20T07:17:17;5.59;84.24
70051;SHT30;57391;51.306;22.680;2023-12-20T07:19:22;5.59;84.21
70051;SHT30;57391;51.306;22.680;2023-12-20T07:21:24;5.60;84.20
70051;SHT30;57391;51.306;22.680;2023-12-20T07:23:26;5.63;84.16
70051;SHT30;57391;51.306;22.680;2023-12-20T07:25:28;5.63;84.11
70051;SHT30;57391;51.306;22.680;2023-12-20T07:27:34;5.64;84.10
70051;SHT30;57391;51.306;22.680;2023-12-20T07:29:38;5.64;84.04
70051;SHT30;57391;51.306;22.680;2023-12-20T07:31:40;5.63;84.00
70051;SHT30;57391;51.306;22.680;2023-12-20T07:33:42;5.63;83.96
70051;SHT30;57391;51.306;22.680;2023-12-20T07:35:44;5.62;83.89
70051;SHT30;57391;51.306;22.680;2023-12-20T07:37:46;5.60;83.90
70051;SHT30;57391;51.306;22.680;2023-12-20T07:39:48;5.60;83.90
70051;SHT30;57391;51.306;22.680;2023-12-20T07:41:50;5.58;83.90
70051;SHT30;57391;51.306;22.680;2023-12-20T07:43:51;5.57;83.93
70051;SHT30;57391;51.306;22.680;2023-12-20T07:45:54;5.57;83.88
70051;SHT30;57391;51.306;22.680;2023-12-20T07:47:56;5.56;83.85
70051;SHT30;57391;51.306;22.680;2023-12-20T07:49:58;5.56;83.81
70051;SHT30;57391;51.306;22.680;2023-12-20T07:52:00;5.55;83.84
70051;SHT30;57391;51.306;22.680;2023-12-20T07:54:02;5.54;83.80
70051;SHT30;57391;51.306;22.680;2023-12-20T07:56:14;5.52;83.82
70051;SHT30;57391;51.306;22.680;2023-12-20T07:58:20;5.51;83.84
70051;SHT30;57391;51.306;22.680;2023-12-20T08:00:23;5.51;83.89
70051;SHT30;57391;51.306;22.680;2023-12-20T08:02:25;5.52;83.94
70051;SHT30;57391;51.306;22.680;2023-12-20T08:04:27;5.52;83.99
70051;SHT30;57391;51.306;22.680;2023-12-20T08:06:28;5.51;84.01
70051;SHT30;57391;51.306;22.680;2023-12-20T08:08:30;5.55;84.10
70051;SHT30;57391;51.306;22.680;2023-12-20T08:10:32;5.57;84.04
70051;SHT30;57391;51.306;22.680;2023-12-20T08:12:34;5.59;84.05
70051;SHT30;57391;51.306;22.680;2023-12-20T08:14:36;5.59;83.99
70051;SHT30;57391;51.306;22.680;2023-12-20T08:16:38;5.59;84.00
70051;SHT30;57391;51.306;22.680;2023-12-20T08:18:40;5.61;84.01
70051;SHT30;57391;51.306;22.680;2023-12-20T08:20:42;5.62;84.03
70051;SHT30;57391;51.306;22.680;2023-12-20T08:22:44;5.64;83.96
70051;SHT30;57391;51.306;22.680;2023-12-20T08:24:46;5.64;83.93
70051;SHT30;57391;51.306;22.680;2023-12-20T08:26:48;5.63;83.90
70051;SHT30;57391;51.306;22.680;2023-12-20T08:28:50;5.64;83.95
70051;SHT30;57391;51.306;22.680;2023-12-20T08:30:53;5.65;83.90
70051;SHT30;57391;51.306;22.680;2023-12-20T08:32:55;5.63;83.84
70051;SHT30;57391;51.306;22.680;2023-12-20T08:34:57;5.63;83.74
70051;SHT30;57391;51.306;22.680;2023-12-20T08:36:59;5.63;83.72
70051;SHT30;57391;51.306;22.680;2023-12-20T08:39:01;5.64;83.76
70051;SHT30;57391;51.306;22.680;2023-12-20T08:41:04;5.64;83.82
70051;SHT30;57391;51.306;22.680;2023-12-20T08:43:08;5.64;83.86
70051;SHT30;57391;51.306;22.680;2023-12-20T08:45:10;5.66;83.96
70051;SHT30;57391;51.306;22.680;2023-12-20T08:47:12;5.66;84.04
70051;SHT30;57391;51.306;22.680;2023-12-20T08:49:17;5.66;84.09
70051;SHT30;57391;51.306;22.680;2023-12-20T08:51:19;5.68;84.10
70051;SHT30;57391;51.306;22.680;2023-12-20T08:53:25;5.68;84.10
70051;SHT30;57391;51.306;22.680;2023-12-20T08:55:28;5.69;84.00
70051;SHT30;57391;51.306;22.680;2023-12-20T08:57:31;5.70;84.07
70051;SHT30;57391;51.306;22.680;2023-12-20T08:59:35;5.71;84.10
70051;SHT30;57391;51.306;22.680;2023-12-20T09:01:36;5.73;84.11
70051;SHT30;57391;51.306;22.680;2023-12-20T09:03:39;5.75;84.09
70051;SHT30;57391;51.306;22.680;2023-12-20T09:05:41;5.76;84.00
70051;SHT30;57391;51.306;22.680;2023-12-20T09:07:43;5.77;84.00
70051;SHT30;57391;51.306;22.680;2023-12-20T09:09:45;5.78;83.94
70051;SHT30;57391;51.306;22.680;2023-12-20T09:11:46;5.80;83.91
70051;SHT30;57391;51.306;22.680;2023-12-20T09:13:51;5.81;83.91
70051;SHT30;57391;51.306;22.680;2023-12-20T09:15:54;5.84;83.88
70051;SHT30;57391;51.306;22.680;2023-12-20T09:17:57;5.84;83.74
70051;SHT30;57391;51.306;22.680;2023-12-20T09:19:59;5.84;83.71
70051;SHT30;57391;51.306;22.680;2023-12-20T09:22:01;5.84;83.64
70051;SHT30;57391;51.306;22.680;2023-12-20T09:24:03;5.83;83.64
70051;SHT30;57391;51.306;22.680;2023-12-20T09:26:05;5.83;83.63
70051;SHT30;57391;51.306;22.680;2023-12-20T09:28:07;5.82;83.60
70051;SHT30;57391;51.306;22.680;2023-12-20T09:30:09;5.82;83.63
70051;SHT30;57391;51.306;22.680;2023-12-20T09:32:11;5.81;83.70
70051;SHT30;57391;51.306;22.680;2023-12-20T09:34:15;5.80;83.71
70051;SHT30;57391;51.306;22.680;2023-12-20T09:36:18;5.78;83.81
70051;SHT30;57391;51.306;22.680;2023-12-20T09:38:20;5.78;83.90
70051;SHT30;57391;51.306;22.680;2023-12-20T09:40:22;5.79;84.00
70051;SHT30;57391;51.306;22.680;2023-12-20T09:42:47;5.80;84.06
70051;SHT30;57391;51.306;22.680;2023-12-20T09:45:00;5.82;84.10
70051;SHT30;57391;51.306;22.680;2023-12-20T09:47:04;5.83;84.13
70051;SHT30;57391;51.306;22.680;2023-12-20T09:49:08;5.84;84.09
70051;SHT30;57391;51.306;22.680;2023-12-20T09:51:10;5.84;84.05
70051;SHT30;57391;51.306;22.680;2023-12-20T09:53:14;5.86;84.10
70051;SHT30;57391;51.306;22.680;2023-12-20T09:55:18;5.85;84.10
70051;SHT30;57391;51.306;22.680;2023-12-20T09:57:21;5.86;84.18
70051;SHT30;57391;51.306;22.680;2023-12-20T09:59:23;5.90;84.64
70051;SHT30;57391;51.306;22.680;2023-12-20T10:01:25;5.95;84.60
70051;SHT30;57391;51.306;22.680;2023-12-20T10:03:30;5.96;84.26
70051;SHT30;57391;51.306;22.680;2023-12-20T10:05:33;5.96;84.20
70051;SHT30;57391;51.306;22.680;2023-12-20T10:07:36;5.97;84.19
70051;SHT30;57391;51.306;22.680;2023-12-20T10:09:38;5.98;84.10
70051;SHT30;57391;51.306;22.680;2023-12-20T10:11:40;5.98;84.10
70051;SHT30;57391;51.306;22.680;2023-12-20T10:13:42;6.01;84.09
70051;SHT30;57391;51.306;22.680;2023-12-20T10:15:49;6.01;84.03
70051;SHT30;57391;51.306;22.680;2023-12-20T10:17:51;6.02;83.96
70051;SHT30;57391;51.306;22.680;2023-12-20T10:19:53;6.02;83.90
70051;SHT30;57391;51.306;22.680;2023-12-20T10:21:55;6.02;83.90
70051;SHT30;57391;51.306;22.680;2023-12-20T10:23:57;6.03;83.89
70051;SHT30;57391;51.306;22.680;2023-12-20T10:25:59;6.03;83.85
70051;SHT30;57391;51.306;22.680;2023-12-20T10:28:10;6.03;83.88
70051;SHT30;57391;51.306;22.680;2023-12-20T10:30:22;6.04;83.82
70051;SHT30;57391;51.306;22.680;2023-12-20T10:32:24;6.04;83.90
70051;SHT30;57391;51.306;22.680;2023-12-20T10:34:28;6.02;83.86
70051;SHT30;57391;51.306;22.680;2023-12-20T10:38:16;6.01;83.99
70051;SHT30;57391;51.306;22.680;2023-12-20T10:40:18;6.02;84.09
70051;SHT30;57391;51.306;22.680;2023-12-20T10:42:20;6.01;84.01
70051;SHT30;57391;51.306;22.680;2023-12-20T10:44:23;6.02;84.03
70051;SHT30;57391;51.306;22.680;2023-12-20T10:46:26;6.03;84.11
70051;SHT30;57391;51.306;22.680;2023-12-20T10:48:32;6.03;84.10
70051;SHT30;57391;51.306;22.680;2023-12-20T10:50:36;6.03;84.10
70051;SHT30;57391;51.306;22.680;2023-12-20T10:52:42;6.02;84.13
70051;SHT30;57391;51.306;22.680;2023-12-20T10:54:47;6.04;84.11
70051;SHT30;57391;51.306;22.680;2023-12-20T10:56:48;6.04;84.05
70051;SHT30;57391;51.306;22.680;2023-12-20T10:58:53;6.04;84.09
70051;SHT30;57391;51.306;22.680;2023-12-20T11:00:59;6.06;84.10
70051;SHT30;57391;51.306;22.680;2023-12-20T11:03:06;6.06;84.01
70051;SHT30;57391;51.306;22.680;2023-12-20T11:07:33;6.09;84.05
70051;SHT30;57391;51.306;22.680;2023-12-20T11:09:47;6.09;84.10
70051;SHT30;57391;51.306;22.680;2023-12-20T11:14:46;6.12;83.99
70051;SHT30;57391;51.306;22.680;2023-12-20T11:19:28;6.13;84.00
70051;SHT30;57391;51.306;22.680;2023-12-20T11:21:30;6.14;84.03
70051;SHT30;57391;51.306;22.680;2023-12-20T11:23:32;6.13;83.91
70051;SHT30;57391;51.306;22.680;2023-12-20T11:25:55;6.13;83.91
70051;SHT30;57391;51.306;22.680;2023-12-20T11:28:10;6.15;83.88
70051;SHT30;57391;51.306;22.680;2023-12-20T11:30:13;6.14;83.80
70051;SHT30;57391;51.306;22.680;2023-12-20T11:34:27;6.11;83.70
70051;SHT30;57391;51.306;22.680;2023-12-20T11:36:33;6.10;83.65
70051;SHT30;57391;51.306;22.680;2023-12-20T11:38:35;6.08;83.75
70051;SHT30;57391;51.306;22.680;2023-12-20T11:40:38;6.08;83.80
70051;SHT30;57391;51.306;22.680;2023-12-20T11:42:45;6.07;83.66
70051;SHT30;57391;51.306;22.680;2023-12-20T11:44:50;6.06;83.69
70051;SHT30;57391;51.306;22.680;2023-12-20T11:46:52;6.05;83.72
70051;SHT30;57391;51.306;22.680;2023-12-20T11:48:55;6.07;83.86
70051;SHT30;57391;51.306;22.680;2023-12-20T11:50:57;6.08;83.90
70051;SHT30;57391;51.306;22.680;2023-12-20T11:53:00;6.10;83.91
70051;SHT30;57391;51.306;22.680;2023-12-20T11:55:02;6.10;83.90
70051;SHT30;57391;51.306;22.680;2023-12-20T11:57:04;6.10;83.86
70051;SHT30;57391;51.306;22.680;2023-12-20T11:59:07;6.10;83.80
70051;SHT30;57391;51.306;22.680;2023-12-20T12:01:10;6.11;83.79
70051;SHT30;57391;51.306;22.680;2023-12-20T12:03:14;6.13;83.82
70051;SHT30;57391;51.306;22.680;2023-12-20T12:05:17;6.15;83.81
70051;SHT30;57391;51.306;22.680;2023-12-20T12:07:19;6.14;83.74
70051;SHT30;57391;51.306;22.680;2023-12-20T12:09:21;6.14;83.65
70051;SHT30;57391;51.306;22.680;2023-12-20T12:11:23;6.11;83.51
70051;SHT30;57391;51.306;22.680;2023-12-20T12:13:25;6.09;83.50
70051;SHT30;57391;51.306;22.680;2023-12-20T12:15:29;6.08;83.43
70051;SHT30;57391;51.306;22.680;2023-12-20T12:17:31;6.04;83.21
70051;SHT30;57391;51.306;22.680;2023-12-20T12:19:32;6.02;83.31
70051;SHT30;57391;51.306;22.680;2023-12-20T12:21:37;5.98;83.24
70051;SHT30;57391;51.306;22.680;2023-12-20T12:23:38;5.95;83.24
70051;SHT30;57391;51.306;22.680;2023-12-20T12:25:40;5.92;83.24
70051;SHT30;57391;51.306;22.680;2023-12-20T12:27:42;5.90;83.29
70051;SHT30;57391;51.306;22.680;2023-12-20T12:30:03;5.89;83.43
70051;SHT30;57391;51.306;22.680;2023-12-20T12:32:08;5.87;83.55
70051;SHT30;57391;51.306;22.680;2023-12-20T12:34:11;5.85;83.60
70051;SHT30;57391;51.306;22.680;2023-12-20T12:36:13;5.84;83.64
70051;SHT30;57391;51.306;22.680;2023-12-20T12:38:19;5.82;83.60
70051;SHT30;57391;51.306;22.680;2023-12-20T12:40:22;5.82;83.63
70051;SHT30;57391;51.306;22.680;2023-12-20T12:42:24;5.81;83.71
70051;SHT30;57391;51.306;22.680;2023-12-20T12:44:29;5.80;83.70
70051;SHT30;57391;51.306;22.680;2023-12-20T12:46:31;5.78;83.68
70051;SHT30;57391;51.306;22.680;2023-12-20T12:48:34;5.78;83.56
70051;SHT30;57391;51.306;22.680;2023-12-20T12:50:35;5.78;83.66
70051;SHT30;57391;51.306;22.680;2023-12-20T12:52:37;5.76;83.63
70051;SHT30;57391;51.306;22.680;2023-12-20T12:54:39;5.74;83.60
70051;SHT30;57391;51.306;22.680;2023-12-20T12:56:41;5.71;83.56
70051;SHT30;57391;51.306;22.680;2023-12-20T12:58:43;5.69;83.60
70051;SHT30;57391;51.306;22.680;2023-12-20T13:00:46;5.67;83.59
70051;SHT30;57391;51.306;22.680;2023-12-20T13:02:48;5.64;83.61
70051;SHT30;57391;51.306;22.680;2023-12-20T13:04:49;5.63;83.56
70051;SHT30;57391;51.306;22.680;2023-12-20T13:06:51;5.61;83.51